sensor_id;sensor_type;location;lat;lon;timestamp;temperature;humidity
4054;DHT22;2042;47.956;9.222;2022-07-29T00:52:37;15.70;63.50
4054;DHT22;2042;47.956;9.222;2022-07-29T00:55:10;15.60;63.90
4054;DHT22;2042;47.956;9.222;2022-07-29T00:57:37;15.60;63.90
4054;DHT22;2042;47.956;9.222;2022-07-29T01:07:25;15.70;64.80
4054;DHT22;2042;47.956;9.222;2022-07-29T01:09:52;15.70;64.00
4054;DHT22;2042;47.956;9.222;2022-07-29T01:12:24;15.70;63.80
4054;DHT22;2042;47.956;9.222;2022-07-29T01:14:51;15.70;63.20
4054;DHT22;2042;47.956;9.222;2022-07-29T01:17:22;15.70;64.10
4054;DHT22;2042;47.956;9.222;2022-07-29T01:22:42;15.80;64.80
4054;DHT22;2042;47.956;9.222;2022-07-29T01:30:57;15.80;64.10
4054;DHT22;2042;47.956;9.222;2022-07-29T01:33:25;15.80;64.70
4054;DHT22;2042;47.956;9.222;2022-07-29T01:36:37;15.80;64.60
4054;DHT22;2042;47.956;9.222;2022-07-29T01:44:42;15.90;64.40
4054;DHT22;2042;47.956;9.222;2022-07-29T01:47:20;15.90;64.50
4054;DHT22;2042;47.956;9.222;2022-07-29T01:49:50;16.00;64.10
4054;DHT22;2042;47.956;9.222;2022-07-29T01:52:25;16.00;63.40
4054;DHT22;2042;47.956;9.222;2022-07-29T01:54:55;15.90;62.70
4054;DHT22;2042;47.956;9.222;2022-07-29T01:57:27;15.90;62.80
4054;DHT22;2042;47.956;9.222;2022-07-29T01:59:54;15.90;63.00
4054;DHT22;2042;47.956;9.222;2022-07-29T02:02:22;15.90;63.60
4054;DHT22;2042;47.956;9.222;2022-07-29T02:04:49;15.90;63.70
4054;DHT22;2042;47.956;9.222;2022-07-29T02:07:19;16.00;64.10
4054;DHT22;2042;47.956;9.222;2022-07-29T02:09:46;16.00;64.60
4054;DHT22;2042;47.956;9.222;2022-07-29T02:12:14;16.00;64.10
4054;DHT22;2042;47.956;9.222;2022-07-29T02:14:47;16.00;64.00
4054;DHT22;2042;47.956;9.222;2022-07-29T02:17:17;16.00;64.30
4054;DHT22;2042;47.956;9.222;2022-07-29T02:19:46;16.00;64.20
4054;DHT22;2042;47.956;9.222;2022-07-29T02:22:13;16.00;64.20
4054;DHT22;2042;47.956;9.222;2022-07-29T02:24:40;16.00;63.40
4054;DHT22;2042;47.956;9.222;2022-07-29T02:27:07;15.90;64.10
4054;DHT22;2042;47.956;9.222;2022-07-29T02:29:35;15.80;63.20
4054;DHT22;2042;47.956;9.222;2022-07-29T02:32:03;15.70;63.00
4054;DHT22;2042;47.956;9.222;2022-07-29T02:34:30;15.70;62.80
4054;DHT22;2042;47.956;9.222;2022-07-29T02:36:56;15.70;63.20
4054;DHT22;2042;47.956;9.222;2022-07-29T02:39:23;15.70;63.30
4054;DHT22;2042;47.956;9.222;2022-07-29T02:41:57;15.80;63.40
4054;DHT22;2042;47.956;9.222;2022-07-29T02:44:26;15.80;63.60
4054;DHT22;2042;47.956;9.222;2022-07-29T02:47:04;15.80;63.30
4054;DHT22;2042;47.956;9.222;2022-07-29T02:55:15;15.70;63.00
4054;DHT22;2042;47.956;9.222;2022-07-29T02:57:41;15.70;63.60
4054;DHT22;2042;47.956;9.222;2022-07-29T03:00:10;15.70;62.90
4054;DHT22;2042;47.956;9.222;2022-07-29T03:02:40;15.70;63.60
4054;DHT22;2042;47.956;9.222;2022-07-29T03:05:10;15.60;63.70
4054;DHT22;2042;47.956;9.222;2022-07-29T03:07:37;15.60;64.40
4054;DHT22;2042;47.956;9.222;2022-07-29T03:10:04;15.60;64.10
4054;DHT22;2042;47.956;9.222;2022-07-29T03:12:31;15.50;64.00
4054;DHT22;2042;47.956;9.222;2022-07-29T03:14:58;15.60;64.10
4054;DHT22;2042;47.956;9.222;2022-07-29T03:17:24;15.60;64.10
4054;DHT22;2042;47.956;9.222;2022-07-29T03:19:50;15.60;64.10
4054;DHT22;2042;47.956;9.222;2022-07-29T03:22:16;15.60;64.00
4054;DHT22;2042;47.956;9.222;2022-07-29T03:24:42;15.60;63.90
4054;DHT22;2042;47.956;9.222;2022-07-29T03:27:08;15.60;63.70
4054;DHT22;2042;47.956;9.222;2022-07-29T03:29:34;15.60;63.60
4054;DHT22;2042;47.956;9.222;2022-07-29T03:32:01;15.60;63.60
4054;DHT22;2042;47.956;9.222;2022-07-29T03:34:27;15.60;63.70
4054;DHT22;2042;47.956;9.222;2022-07-29T03:36:53;15.60;63.70
4054;DHT22;2042;47.956;9.222;2022-07-29T03:39:23;15.50;64.10
4054;DHT22;2042;47.956;9.222;2022-07-29T03:41:53;15.50;63.60
4054;DHT22;2042;47.956;9.222;2022-07-29T03:44:21;15.50;63.60
4054;DHT22;2042;47.956;9.222;2022-07-29T03:46:48;15.40;64.10
4054;DHT22;2042;47.956;9.222;2022-07-29T03:49:16;15.50;64.40
4054;DHT22;2042;47.956;9.222;2022-07-29T03:56:42;15.30;17.70
4054;DHT22;2042;47.956;9.222;2022-07-29T03:59:10;15.30;18.50
4054;DHT22;2042;47.956;9.222;2022-07-29T04:01:37;15.20;19.00
4054;DHT22;2042;47.956;9.222;2022-07-29T04:04:04;15.10;19.90
4054;DHT22;2042;47.956;9.222;2022-07-29T04:06:50;15.10;20.30
4054;DHT22;2042;47.956;9.222;2022-07-29T04:09:16;15.20;20.70
4054;DHT22;2042;47.956;9.222;2022-07-29T04:11:42;15.20;20.90
4054;DHT22;2042;47.956;9.222;2022-07-29T04:14:08;15.20;20.80
4054;DHT22;2042;47.956;9.222;2022-07-29T04:16:34;15.20;20.90
4054;DHT22;2042;47.956;9.222;2022-07-29T04:19:00;15.20;20.80
4054;DHT22;2042;47.956;9.222;2022-07-29T04:21:26;15.20;21.20
4054;DHT22;2042;47.956;9.222;2022-07-29T04:23:51;15.30;21.70
4054;DHT22;2042;47.956;9.222;2022-07-29T04:26:17;15.40;21.80
4054;DHT22;2042;47.956;9.222;2022-07-29T04:28:43;15.50;21.50
4054;DHT22;2042;47.956;9.222;2022-07-29T04:31:09;15.50;20.90
4054;DHT22;2042;47.956;9.222;2022-07-29T04:33:35;15.50;20.80
4054;DHT22;2042;47.956;9.222;2022-07-29T04:36:01;15.50;20.50
4054;DHT22;2042;47.956;9.222;2022-07-29T04:38:27;15.50;20.50
4054;DHT22;2042;47.956;9.222;2022-07-29T04:40:52;15.60;20.50
4054;DHT22;2042;47.956;9.222;2022-07-29T04:43:18;15.60;20.50
4054;DHT22;2042;47.956;9.222;2022-07-29T04:45:44;15.60;20.30
4054;DHT22;2042;47.956;9.222;2022-07-29T04:48:10;15.60;19.10
4054;DHT22;2042;47.956;9.222;2022-07-29T04:50:38;15.60;18.60
4054;DHT22;2042;47.956;9.222;2022-07-29T04:53:05;15.60;18.40
4054;DHT22;2042;47.956;9.222;2022-07-29T04:55:31;15.60;17.70
4054;DHT22;2042;47.956;9.222;2022-07-29T04:57:56;15.60;17.30
4054;DHT22;2042;47.956;9.222;2022-07-29T05:00:22;15.60;16.70
4054;DHT22;2042;47.956;9.222;2022-07-29T05:02:49;15.60;16.80
4054;DHT22;2042;47.956;9.222;2022-07-29T05:05:14;15.60;17.10
4054;DHT22;2042;47.956;9.222;2022-07-29T05:07:40;15.60;16.90
4054;DHT22;2042;47.956;9.222;2022-07-29T05:10:07;15.60;16.90
4054;DHT22;2042;47.956;9.222;2022-07-29T05:12:33;15.70;17.30
4054;DHT22;2042;47.956;9.222;2022-07-29T05:14:59;15.70;17.00
4054;DHT22;2042;47.956;9.222;2022-07-29T05:17:24;15.70;16.50
4054;DHT22;2042;47.956;9.222;2022-07-29T05:19:50;15.70;16.70
4054;DHT22;2042;47.956;9.222;2022-07-29T05:22:19;15.80;16.80
4054;DHT22;2042;47.956;9.222;2022-07-29T05:24:45;15.80;16.80
4054;DHT22;2042;47.956;9.222;2022-07-29T05:27:11;15.90;16.90
4054;DHT22;2042;47.956;9.222;2022-07-29T05:29:37;16.00;17.10
4054;DHT22;2042;47.956;9.222;2022-07-29T05:32:03;16.00;17.30
4054;DHT22;2042;47.956;9.222;2022-07-29T05:34:29;16.20;17.80
4054;DHT22;2042;47.956;9.222;2022-07-29T05:36:55;16.30;17.90
4054;DHT22;2042;47.956;9.222;2022-07-29T05:39:20;16.40;17.60
4054;DHT22;2042;47.956;9.222;2022-07-29T05:41:46;16.50;16.90
4054;DHT22;2042;47.956;9.222;2022-07-29T05:44:12;16.60;16.10
4054;DHT22;2042;47.956;9.222;2022-07-29T05:46:39;16.60;15.50
4054;DHT22;2042;47.956;9.222;2022-07-29T05:49:05;16.70;15.00
4054;DHT22;2042;47.956;9.222;2022-07-29T05:51:35;16.80;14.80
4054;DHT22;2042;47.956;9.222;2022-07-29T05:54:01;16.90;14.50
4054;DHT22;2042;47.956;9.222;2022-07-29T05:56:27;17.00;19.10
4054;DHT22;2042;47.956;9.222;2022-07-29T05:58:54;17.20;13.50
4054;DHT22;2042;47.956;9.222;2022-07-29T06:01:20;17.20;13.10
4054;DHT22;2042;47.956;9.222;2022-07-29T06:03:45;17.30;12.20
4054;DHT22;2042;47.956;9.222;2022-07-29T06:06:11;17.40;11.80
4054;DHT22;2042;47.956;9.222;2022-07-29T06:08:37;17.50;11.50
4054;DHT22;2042;47.956;9.222;2022-07-29T06:11:04;17.60;10.90
4054;DHT22;2042;47.956;9.222;2022-07-29T06:13:30;17.70;10.30
4054;DHT22;2042;47.956;9.222;2022-07-29T06:15:56;17.80;9.40
4054;DHT22;2042;47.956;9.222;2022-07-29T06:18:22;17.90;9.60
4054;DHT22;2042;47.956;9.222;2022-07-29T06:23:20;18.30;6.00
4054;DHT22;2042;47.956;9.222;2022-07-29T06:25:46;18.40;6.10
4054;DHT22;2042;47.956;9.222;2022-07-29T06:28:12;18.50;4.40
4054;DHT22;2042;47.956;9.222;2022-07-29T06:30:38;18.60;3.00
4054;DHT22;2042;47.956;9.222;2022-07-29T06:33:04;18.70;1.90
4054;DHT22;2042;47.956;9.222;2022-07-29T06:35:33;18.90;1.90
4054;DHT22;2042;47.956;9.222;2022-07-29T06:40:28;20.20;1.00
4054;DHT22;2042;47.956;9.222;2022-07-29T06:43:20;20.60;1.00
4054;DHT22;2042;47.956;9.222;2022-07-29T06:45:46;21.30;1.00
4054;DHT22;2042;47.956;9.222;2022-07-29T06:48:11;21.50;1.00
4054;DHT22;2042;47.956;9.222;2022-07-29T06:50:37;21.50;1.00
4054;DHT22;2042;47.956;9.222;2022-07-29T06:53:03;21.30;1.00
4054;DHT22;2042;47.956;9.222;2022-07-29T06:55:29;21.40;1.00
4054;DHT22;2042;47.956;9.222;2022-07-29T06:57:55;21.60;1.00
4054;DHT22;2042;47.956;9.222;2022-07-29T07:00:20;21.80;1.00
4054;DHT22;2042;47.956;9.222;2022-07-29T07:02:46;21.80;1.00
4054;DHT22;2042;47.956;9.222;2022-07-29T07:05:12;21.90;1.00
4054;DHT22;2042;47.956;9.222;2022-07-29T07:07:37;21.90;1.00
4054;DHT22;2042;47.956;9.222;2022-07-29T07:10:03;21.90;1.00
4054;DHT22;2042;47.956;9.222;2022-07-29T07:12:29;22.00;1.00
4054;DHT22;2042;47.956;9.222;2022-07-29T07:14:55;22.10;1.00
4054;DHT22;2042;47.956;9.222;2022-07-29T07:17:20;22.20;1.00
4054;DHT22;2042;47.956;9.222;2022-07-29T07:19:46;22.50;1.00
4054;DHT22;2042;47.956;9.222;2022-07-29T07:22:11;22.60;1.00
4054;DHT22;2042;47.956;9.222;2022-07-29T07:24:37;22.60;1.00
4054;DHT22;2042;47.956;9.222;2022-07-29T07:27:03;22.70;1.00
4054;DHT22;2042;47.956;9.222;2022-07-29T07:29:28;22.90;1.00
4054;DHT22;2042;47.956;9.222;2022-07-29T07:31:54;23.20;1.00
4054;DHT22;2042;47.956;9.222;2022-07-29T07:34:20;23.30;1.00
4054;DHT22;2042;47.956;9.222;2022-07-29T07:36:46;23.10;1.00
4054;DHT22;2042;47.956;9.222;2022-07-29T07:39:11;22.80;1.00
4054;DHT22;2042;47.956;9.222;2022-07-29T07:41:37;22.70;1.00
4054;DHT22;2042;47.956;9.222;2022-07-29T07:44:03;22.70;1.00
4054;DHT22;2042;47.956;9.222;2022-07-29T07:46:28;22.80;1.00
4054;DHT22;2042;47.956;9.222;2022-07-29T07:48:54;22.90;1.00
4054;DHT22;2042;47.956;9.222;2022-07-29T07:51:19;23.00;1.00
4054;DHT22;2042;47.956;9.222;2022-07-29T07:53:45;23.20;1.00
4054;DHT22;2042;47.956;9.222;2022-07-29T07:56:15;23.20;1.00
4054;DHT22;2042;47.956;9.222;2022-07-29T07:58:41;23.30;1.00
4054;DHT22;2042;47.956;9.222;2022-07-29T08:01:07;23.60;1.00
4054;DHT22;2042;47.956;9.222;2022-07-29T08:03:33;23.70;1.00
4054;DHT22;2042;47.956;9.222;2022-07-29T08:05:59;24.10;1.00
4054;DHT22;2042;47.956;9.222;2022-07-29T08:08:25;24.40;1.00
4054;DHT22;2042;47.956;9.222;2022-07-29T08:10:50;24.20;1.00
4054;DHT22;2042;47.956;9.222;2022-07-29T08:13:23;23.80;1.00
4054;DHT22;2042;47.956;9.222;2022-07-29T08:15:49;23.70;1.00
4054;DHT22;2042;47.956;9.222;2022-07-29T08:18:37;23.60;1.00
4054;DHT22;2042;47.956;9.222;2022-07-29T08:21:03;23.60;1.00
4054;DHT22;2042;47.956;9.222;2022-07-29T08:23:29;23.60;1.00
4054;DHT22;2042;47.956;9.222;2022-07-29T08:26:08;23.70;1.00
4054;DHT22;2042;47.956;9.222;2022-07-29T08:28:40;23.80;1.00
4054;DHT22;2042;47.956;9.222;2022-07-29T08:31:06;24.00;1.00
4054;DHT22;2042;47.956;9.222;2022-07-29T08:33:33;24.20;1.00
4054;DHT22;2042;47.956;9.222;2022-07-29T08:35:58;24.30;1.00
4054;DHT22;2042;47.956;9.222;2022-07-29T08:38:24;24.60;1.00
4054;DHT22;2042;47.956;9.222;2022-07-29T08:40:52;24.90;1.00
4054;DHT22;2042;47.956;9.222;2022-07-29T08:43:19;24.90;1.00
4054;DHT22;2042;47.956;9.222;2022-07-29T08:45:50;25.00;1.00
4054;DHT22;2042;47.956;9.222;2022-07-29T08:48:22;25.00;1.00
4054;DHT22;2042;47.956;9.222;2022-07-29T08:50:52;24.90;1.00
4054;DHT22;2042;47.956;9.222;2022-07-29T08:53:18;24.60;1.00
4054;DHT22;2042;47.956;9.222;2022-07-29T08:55:47;24.40;1.00
4054;DHT22;2042;47.956;9.222;2022-07-29T08:58:14;24.40;1.00
4054;DHT22;2042;47.956;9.222;2022-07-29T09:00:45;24.30;1.00
4054;DHT22;2042;47.956;9.222;2022-07-29T09:03:17;24.20;1.00
4054;DHT22;2042;47.956;9.222;2022-07-29T09:05:45;24.20;1.00
4054;DHT22;2042;47.956;9.222;2022-07-29T09:08:15;24.20;1.00
4054;DHT22;2042;47.956;9.222;2022-07-29T09:10:42;24.20;1.00
4054;DHT22;2042;47.956;9.222;2022-07-29T09:13:08;24.00;1.00
4054;DHT22;2042;47.956;9.222;2022-07-29T09:15:34;23.80;1.00
4054;DHT22;2042;47.956;9.222;2022-07-29T09:17:59;23.70;1.00
4054;DHT22;2042;47.956;9.222;2022-07-29T09:20:26;23.60;1.00
4054;DHT22;2042;47.956;9.222;2022-07-29T09:23:11;23.40;1.00
4054;DHT22;2042;47.956;9.222;2022-07-29T09:25:39;23.30;1.00
4054;DHT22;2042;47.956;9.222;2022-07-29T09:28:13;23.30;1.00
4054;DHT22;2042;47.956;9.222;2022-07-29T09:30:57;23.50;1.00
4054;DHT22;2042;47.956;9.222;2022-07-29T09:33:33;24.10;1.00
4054;DHT22;2042;47.956;9.222;2022-07-29T09:36:09;25.00;1.00
4054;DHT22;2042;47.956;9.222;2022-07-29T09:38:35;25.70;1.00
4054;DHT22;2042;47.956;9.222;2022-07-29T09:41:04;26.10;1.00
4054;DHT22;2042;47.956;9.222;2022-07-29T09:43:30;26.60;1.00
4054;DHT22;2042;47.956;9.222;2022-07-29T09:45:59;27.10;1.00
4054;DHT22;2042;47.956;9.222;2022-07-29T09:48:34;27.80;1.00
4054;DHT22;2042;47.956;9.222;2022-07-29T09:51:00;28.30;1.00
4054;DHT22;2042;47.956;9.222;2022-07-29T09:53:35;28.30;1.00
4054;DHT22;2042;47.956;9.222;2022-07-29T09:56:02;28.00;1.00
4054;DHT22;2042;47.956;9.222;2022-07-29T09:58:28;27.70;1.00
4054;DHT22;2042;47.956;9.222;2022-07-29T10:00:55;27.40;1.00
4054;DHT22;2042;47.956;9.222;2022-07-29T10:03:21;27.00;1.00
4054;DHT22;2042;47.956;9.222;2022-07-29T10:06:12;26.70;1.00
4054;DHT22;2042;47.956;9.222;2022-07-29T10:08:39;26.60;1.00
4054;DHT22;2042;47.956;9.222;2022-07-29T10:13:36;26.10;1.00
4054;DHT22;2042;47.956;9.222;2022-07-29T10:16:02;25.70;1.00
4054;DHT22;2042;47.956;9.222;2022-07-29T10:18:28;25.20;1.00
4054;DHT22;2042;47.956;9.222;2022-07-29T10:20:54;24.50;1.00
4054;DHT22;2042;47.956;9.222;2022-07-29T10:23:21;23.90;1.00
4054;DHT22;2042;47.956;9.222;2022-07-29T10:25:47;23.50;1.00
4054;DHT22;2042;47.956;9.222;2022-07-29T10:28:13;23.10;1.00
4054;DHT22;2042;47.956;9.222;2022-07-29T10:30:39;22.80;1.00
4054;DHT22;2042;47.956;9.222;2022-07-29T10:38:37;22.40;1.00
4054;DHT22;2042;47.956;9.222;2022-07-29T10:52:08;21.10;1.00
4054;DHT22;2042;47.956;9.222;2022-07-29T10:54:37;21.20;1.00
4054;DHT22;2042;47.956;9.222;2022-07-29T10:59:43;22.10;1.00
4054;DHT22;2042;47.956;9.222;2022-07-29T11:05:17;23.90;1.00
4054;DHT22;2042;47.956;9.222;2022-07-29T11:10:38;25.90;1.00
4054;DHT22;2042;47.956;9.222;2022-07-29T11:13:04;25.30;1.00
4054;DHT22;2042;47.956;9.222;2022-07-29T11:15:53;25.00;1.00
4054;DHT22;2042;47.956;9.222;2022-07-29T11:18:19;25.50;1.00
4054;DHT22;2042;47.956;9.222;2022-07-29T11:20:47;26.40;1.00
4054;DHT22;2042;47.956;9.222;2022-07-29T11:26:13;29.00;1.00
4054;DHT22;2042;47.956;9.222;2022-07-29T11:28:59;30.40;1.00
4054;DHT22;2042;47.956;9.222;2022-07-29T11:31:41;31.80;1.00
4054;DHT22;2042;47.956;9.222;2022-07-29T11:34:32;32.70;1.00
4054;DHT22;2042;47.956;9.222;2022-07-29T11:39:39;34.10;1.00
4054;DHT22;2042;47.956;9.222;2022-07-29T11:45:08;35.40;1.00
4054;DHT22;2042;47.956;9.222;2022-07-29T11:50:29;37.00;1.00
4054;DHT22;2042;47.956;9.222;2022-07-29T11:52:55;37.30;1.00
4054;DHT22;2042;47.956;9.222;2022-07-29T11:55:23;37.50;1.00
4054;DHT22;2042;47.956;9.222;2022-07-29T11:57:54;37.80;1.00
4054;DHT22;2042;47.956;9.222;2022-07-29T12:02:57;38.00;1.00
4054;DHT22;2042;47.956;9.222;2022-07-29T12:05:31;37.80;1.00
4054;DHT22;2042;47.956;9.222;2022-07-29T12:08:07;37.70;1.00
4054;DHT22;2042;47.956;9.222;2022-07-29T12:10:33;37.80;1.00
4054;DHT22;2042;47.956;9.222;2022-07-29T12:12:59;38.00;1.00
4054;DHT22;2042;47.956;9.222;2022-07-29T12:15:25;38.20;1.00
4054;DHT22;2042;47.956;9.222;2022-07-29T12:17:51;38.20;1.00
4054;DHT22;2042;47.956;9.222;2022-07-29T12:20:26;37.80;1.00
4054;DHT22;2042;47.956;9.222;2022-07-29T12:22:52;37.30;1.00
4054;DHT22;2042;47.956;9.222;2022-07-29T12:25:19;37.00;1.00
4054;DHT22;2042;47.956;9.222;2022-07-29T12:27:45;36.80;1.00
4054;DHT22;2042;47.956;9.222;2022-07-29T12:30:13;36.10;1.00
4054;DHT22;2042;47.956;9.222;2022-07-29T12:32:47;34.80;1.00
4054;DHT22;2042;47.956;9.222;2022-07-29T12:35:20;33.40;1.00
4054;DHT22;2042;47.956;9.222;2022-07-29T12:37:47;32.10;1.00
4054;DHT22;2042;47.956;9.222;2022-07-29T12:40:16;30.90;1.00
4054;DHT22;2042;47.956;9.222;2022-07-29T12:43:05;29.80;1.00
4054;DHT22;2042;47.956;9.222;2022-07-29T12:45:31;28.90;1.00
4054;DHT22;2042;47.956;9.222;2022-07-29T12:47:57;28.60;1.00
4054;DHT22;2042;47.956;9.222;2022-07-29T12:50:23;28.40;1.00
4054;DHT22;2042;47.956;9.222;2022-07-29T12:52:49;28.70;1.00
4054;DHT22;2042;47.956;9.222;2022-07-29T12:55:15;28.90;1.00
4054;DHT22;2042;47.956;9.222;2022-07-29T12:57:50;29.20;1.00
4054;DHT22;2042;47.956;9.222;2022-07-29T13:00:23;29.60;1.00
4054;DHT22;2042;47.956;9.222;2022-07-29T13:02:59;29.70;1.00
4054;DHT22;2042;47.956;9.222;2022-07-29T13:05:43;29.70;1.00
4054;DHT22;2042;47.956;9.222;2022-07-29T13:08:13;29.70;1.00
4054;DHT22;2042;47.956;9.222;2022-07-29T13:10:39;29.60;1.00
4054;DHT22;2042;47.956;9.222;2022-07-29T13:13:09;29.50;1.00
4054;DHT22;2042;47.956;9.222;2022-07-29T13:15:41;29.50;1.00
4054;DHT22;2042;47.956;9.222;2022-07-29T13:18:33;29.60;1.00
4054;DHT22;2042;47.956;9.222;2022-07-29T13:21:15;29.80;1.00
4054;DHT22;2042;47.956;9.222;2022-07-29T13:23:41;29.80;1.00
4054;DHT22;2042;47.956;9.222;2022-07-29T13:26:10;29.80;1.00
4054;DHT22;2042;47.956;9.222;2022-07-29T13:28:37;29.70;1.00
4054;DHT22;2042;47.956;9.222;2022-07-29T13:31:03;29.50;1.00
4054;DHT22;2042;47.956;9.222;2022-07-29T13:33:30;29.30;1.00
4054;DHT22;2042;47.956;9.222;2022-07-29T13:35:56;29.20;1.00
4054;DHT22;2042;47.956;9.222;2022-07-29T13:38:21;29.10;1.00
4054;DHT22;2042;47.956;9.222;2022-07-29T13:40:47;28.90;1.00
4054;DHT22;2042;47.956;9.222;2022-07-29T13:43:13;28.60;1.00
4054;DHT22;2042;47.956;9.222;2022-07-29T13:45:39;28.30;1.00
4054;DHT22;2042;47.956;9.222;2022-07-29T13:48:05;28.10;1.00
4054;DHT22;2042;47.956;9.222;2022-07-29T13:50:31;27.60;1.00
4054;DHT22;2042;47.956;9.222;2022-07-29T13:52:57;27.00;1.00
4054;DHT22;2042;47.956;9.222;2022-07-29T13:55:23;26.30;1.00
4054;DHT22;2042;47.956;9.222;2022-07-29T13:57:48;25.70;1.00
4054;DHT22;2042;47.956;9.222;2022-07-29T14:00:14;25.10;1.00
4054;DHT22;2042;47.956;9.222;2022-07-29T14:02:40;24.40;1.00
4054;DHT22;2042;47.956;9.222;2022-07-29T14:05:07;23.60;1.00
4054;DHT22;2042;47.956;9.222;2022-07-29T14:07:34;22.90;1.00
4054;DHT22;2042;47.956;9.222;2022-07-29T14:10:00;22.10;1.00
4054;DHT22;2042;47.956;9.222;2022-07-29T14:12:25;21.10;1.00
4054;DHT22;2042;47.956;9.222;2022-07-29T14:14:51;20.00;1.00
4054;DHT22;2042;47.956;9.222;2022-07-29T14:17:17;19.10;1.00
4054;DHT22;2042;47.956;9.222;2022-07-29T14:19:42;18.30;1.00
4054;DHT22;2042;47.956;9.222;2022-07-29T14:22:09;17.60;1.00
4054;DHT22;2042;47.956;9.222;2022-07-29T14:24:36;17.00;1.00
4054;DHT22;2042;47.956;9.222;2022-07-29T14:27:03;16.50;1.00
4054;DHT22;2042;47.956;9.222;2022-07-29T14:29:29;16.10;1.00
4054;DHT22;2042;47.956;9.222;2022-07-29T14:31:55;15.90;1.00
4054;DHT22;2042;47.956;9.222;2022-07-29T14:34:21;15.80;1.00
4054;DHT22;2042;47.956;9.222;2022-07-29T14:36:47;15.80;1.00
4054;DHT22;2042;47.956;9.222;2022-07-29T14:39:13;15.90;1.00
4054;DHT22;2042;47.956;9.222;2022-07-29T14:41:40;15.90;1.00
4054;DHT22;2042;47.956;9.222;2022-07-29T14:44:06;16.10;1.00
4054;DHT22;2042;47.956;9.222;2022-07-29T14:46:32;16.30;1.00
4054;DHT22;2042;47.956;9.222;2022-07-29T14:48:57;16.40;1.00
4054;DHT22;2042;47.956;9.222;2022-07-29T14:51:23;16.40;1.00
4054;DHT22;2042;47.956;9.222;2022-07-29T14:53:49;16.30;1.00
4054;DHT22;2042;47.956;9.222;2022-07-29T14:56:15;16.20;1.00
4054;DHT22;2042;47.956;9.222;2022-07-29T14:58:41;16.10;1.00
4054;DHT22;2042;47.956;9.222;2022-07-29T15:01:07;16.20;1.00
4054;DHT22;2042;47.956;9.222;2022-07-29T15:03:32;16.40;1.00
4054;DHT22;2042;47.956;9.222;2022-07-29T15:05:58;16.70;36.20
4054;DHT22;2042;47.956;9.222;2022-07-29T15:08:24;16.80;1.00
4054;DHT22;2042;47.956;9.222;2022-07-29T15:10:51;16.90;1.00
4054;DHT22;2042;47.956;9.222;2022-07-29T15:13:16;17.10;1.00
4054;DHT22;2042;47.956;9.222;2022-07-29T15:15:42;17.20;1.00
4054;DHT22;2042;47.956;9.222;2022-07-29T15:18:09;17.10;1.00
4054;DHT22;2042;47.956;9.222;2022-07-29T15:20:35;17.10;1.00
4054;DHT22;2042;47.956;9.222;2022-07-29T15:23:01;17.10;1.00
4054;DHT22;2042;47.956;9.222;2022-07-29T15:25:26;17.20;1.00
4054;DHT22;2042;47.956;9.222;2022-07-29T15:27:52;17.40;1.00
4054;DHT22;2042;47.956;9.222;2022-07-29T15:30:18;17.50;1.00
4054;DHT22;2042;47.956;9.222;2022-07-29T15:32:45;17.60;1.00
4054;DHT22;2042;47.956;9.222;2022-07-29T15:35:11;17.60;1.00
4054;DHT22;2042;47.956;9.222;2022-07-29T15:37:37;17.60;1.00
4054;DHT22;2042;47.956;9.222;2022-07-29T15:40:04;17.50;1.00
4054;DHT22;2042;47.956;9.222;2022-07-29T15:42:30;17.40;1.00
4054;DHT22;2042;47.956;9.222;2022-07-29T15:44:56;17.20;1.00
4054;DHT22;2042;47.956;9.222;2022-07-29T15:47:22;16.90;1.00
4054;DHT22;2042;47.956;9.222;2022-07-29T15:49:48;16.80;1.00
4054;DHT22;2042;47.956;9.222;2022-07-29T15:52:18;16.70;1.00
4054;DHT22;2042;47.956;9.222;2022-07-29T15:54:44;16.50;1.00
4054;DHT22;2042;47.956;9.222;2022-07-29T15:57:10;16.50;1.00
4054;DHT22;2042;47.956;9.222;2022-07-29T15:59:37;16.40;1.00
4054;DHT22;2042;47.956;9.222;2022-07-29T16:02:04;16.40;1.00
4054;DHT22;2042;47.956;9.222;2022-07-29T16:04:31;16.40;1.80
4054;DHT22;2042;47.956;9.222;2022-07-29T16:06:57;16.50;4.00
4054;DHT22;2042;47.956;9.222;2022-07-29T16:09:23;16.70;5.50
4054;DHT22;2042;47.956;9.222;2022-07-29T16:11:49;16.80;5.90
4054;DHT22;2042;47.956;9.222;2022-07-29T16:14:18;17.00;6.10
4054;DHT22;2042;47.956;9.222;2022-07-29T16:16:44;17.20;5.50
4054;DHT22;2042;47.956;9.222;2022-07-29T16:19:10;17.40;3.90
4054;DHT22;2042;47.956;9.222;2022-07-29T16:21:36;17.50;2.80
4054;DHT22;2042;47.956;9.222;2022-07-29T16:24:04;17.60;1.20
4054;DHT22;2042;47.956;9.222;2022-07-29T16:26:31;17.60;1.00
4054;DHT22;2042;47.956;9.222;2022-07-29T16:28:57;17.70;1.00
4054;DHT22;2042;47.956;9.222;2022-07-29T16:31:24;17.70;1.00
4054;DHT22;2042;47.956;9.222;2022-07-29T16:33:52;17.60;1.00
4054;DHT22;2042;47.956;9.222;2022-07-29T16:36:18;17.60;1.00
4054;DHT22;2042;47.956;9.222;2022-07-29T16:38:45;17.50;1.00
4054;DHT22;2042;47.956;9.222;2022-07-29T16:41:11;17.60;1.00
4054;DHT22;2042;47.956;9.222;2022-07-29T16:43:37;17.60;1.00
4054;DHT22;2042;47.956;9.222;2022-07-29T16:46:02;17.70;1.00
4054;DHT22;2042;47.956;9.222;2022-07-29T16:48:28;17.70;1.00
4054;DHT22;2042;47.956;9.222;2022-07-29T16:50:53;17.70;1.00
4054;DHT22;2042;47.956;9.222;2022-07-29T16:53:20;17.70;1.00
4054;DHT22;2042;47.956;9.222;2022-07-29T16:55:46;17.70;1.00
4054;DHT22;2042;47.956;9.222;2022-07-29T16:58:12;17.70;1.00
4054;DHT22;2042;47.956;9.222;2022-07-29T17:00:38;17.70;1.00
4054;DHT22;2042;47.956;9.222;2022-07-29T17:03:04;17.70;1.00
4054;DHT22;2042;47.956;9.222;2022-07-29T17:05:30;17.70;1.00
4054;DHT22;2042;47.956;9.222;2022-07-29T17:07:56;17.70;1.00
4054;DHT22;2042;47.956;9.222;2022-07-29T17:10:24;17.70;1.00
4054;DHT22;2042;47.956;9.222;2022-07-29T17:12:51;17.70;1.00
4054;DHT22;2042;47.956;9.222;2022-07-29T17:15:17;17.60;1.00
4054;DHT22;2042;47.956;9.222;2022-07-29T17:17:44;17.70;1.00
4054;DHT22;2042;47.956;9.222;2022-07-29T17:20:11;17.70;1.00
4054;DHT22;2042;47.956;9.222;2022-07-29T17:22:37;17.60;1.00
4054;DHT22;2042;47.956;9.222;2022-07-29T17:25:06;17.60;1.00
4054;DHT22;2042;47.956;9.222;2022-07-29T17:27:32;17.50;1.00
4054;DHT22;2042;47.956;9.222;2022-07-29T17:29:58;17.50;1.00
4054;DHT22;2042;47.956;9.222;2022-07-29T17:32:24;17.50;1.10
4054;DHT22;2042;47.956;9.222;2022-07-29T17:34:49;17.50;1.70
4054;DHT22;2042;47.956;9.222;2022-07-29T17:37:15;17.40;1.70
4054;DHT22;2042;47.956;9.222;2022-07-29T17:39:41;17.40;2.20
4054;DHT22;2042;47.956;9.222;2022-07-29T17:42:08;17.40;1.80
4054;DHT22;2042;47.956;9.222;2022-07-29T17:44:34;17.30;1.00
4054;DHT22;2042;47.956;9.222;2022-07-29T17:47:00;17.30;1.00
4054;DHT22;2042;47.956;9.222;2022-07-29T17:49:26;17.30;1.00
4054;DHT22;2042;47.956;9.222;2022-07-29T17:51:52;17.20;1.00
4054;DHT22;2042;47.956;9.222;2022-07-29T17:54:18;17.10;1.00
4054;DHT22;2042;47.956;9.222;2022-07-29T17:56:44;17.10;1.00
4054;DHT22;2042;47.956;9.222;2022-07-29T17:59:10;17.10;1.00
4054;DHT22;2042;47.956;9.222;2022-07-29T18:01:37;17.10;1.00
4054;DHT22;2042;47.956;9.222;2022-07-29T18:04:04;17.10;1.00
4054;DHT22;2042;47.956;9.222;2022-07-29T18:06:30;17.10;1.00
4054;DHT22;2042;47.956;9.222;2022-07-29T18:08:55;17.20;1.00
4054;DHT22;2042;47.956;9.222;2022-07-29T18:11:22;17.20;1.00
4054;DHT22;2042;47.956;9.222;2022-07-29T18:13:47;17.30;1.00
4054;DHT22;2042;47.956;9.222;2022-07-29T18:16:13;17.40;1.00
4054;DHT22;2042;47.956;9.222;2022-07-29T18:18:39;17.40;1.00
4054;DHT22;2042;47.956;9.222;2022-07-29T18:21:05;17.60;1.00
4054;DHT22;2042;47.956;9.222;2022-07-29T18:23:31;17.60;1.00
4054;DHT22;2042;47.956;9.222;2022-07-29T18:25:57;17.70;1.00